Time;durP1;ratioP1;P1;durP2;ratioP2;P2;SDS_P1;SDS_P2;PMS_P1;PMS_P2;Temp;Humidity;BMP_temperature;BMP_pressure;BME280_temperature;BME280_humidity;BME280_pressure;Samples;Min_cycle;Max_cycle;Signal;HPM_P1;HPM_P2
2022/04/08 00:01:26;;;;;;;5.95;2.33;;;;;;;5.79;100.00;98840.50;5047126;28;20027;-63
2022/04/08 00:03:52;;;;;;;4.53;2.25;;;;;;;5.78;100.00;98823.19;5047670;28;20870;-63
2022/04/08 00:06:19;;;;;;;4.20;2.03;;;;;;;5.58;100.00;98800.00;5047940;28;20035;-63
2022/04/08 00:08:45;;;;;;;4.90;2.17;;;;;;;5.68;100.00;98826.41;5047782;28;20027;-63
2022/04/08 00:11:11;;;;;;;5.20;2.10;;;;;;;5.60;100.00;98827.69;5047888;28;20035;-63
2022/04/08 00:13:36;;;;;;;6.18;2.50;;;;;;;5.53;100.00;98825.50;5049248;28;20048;-63
2022/04/08 00:16:01;;;;;;;5.80;2.10;;;;;;;5.45;100.00;98830.25;5047461;28;20070;-62
2022/04/08 00:18:29;;;;;;;6.35;2.33;;;;;;;5.50;100.00;98849.94;5049036;28;20036;-62
2022/04/08 00:20:54;;;;;;;11.80;3.08;;;;;;;5.51;100.00;98845.56;5041508;28;20126;-63
2022/04/08 00:23:19;;;;;;;5.57;2.15;;;;;;;5.28;100.00;98822.53;5057750;28;20038;-63
2022/04/08 00:25:45;;;;;;;7.00;2.85;;;;;;;5.39;100.00;98851.44;5050378;28;20896;-62
2022/04/08 00:28:10;;;;;;;4.13;1.88;;;;;;;5.45;100.00;98858.91;5048975;28;20028;-62
2022/04/08 00:30:36;;;;;;;7.75;2.92;;;;;;;5.47;100.00;98864.91;5049005;28;20039;-63
2022/04/08 00:33:01;;;;;;;6.70;2.30;;;;;;;5.45;100.00;98864.13;5047410;28;20032;-64
2022/04/08 00:35:26;;;;;;;6.60;2.95;;;;;;;5.42;100.00;98862.53;5048841;28;20024;-63
2022/04/08 00:37:52;;;;;;;8.20;2.70;;;;;;;5.43;100.00;98873.81;5048876;28;20862;-63
2022/04/08 00:40:17;;;;;;;5.78;2.90;;;;;;;5.31;100.00;98843.19;5047456;28;20031;-63
2022/04/08 00:42:43;;;;;;;9.27;3.28;;;;;;;5.34;100.00;98858.69;5048255;28;20929;-62
2022/04/08 00:45:09;;;;;;;5.15;2.88;;;;;;;5.08;100.00;98821.84;5047093;28;20901;-62
2022/04/08 00:47:36;;;;;;;7.25;3.05;;;;;;;5.25;100.00;98853.94;5047171;28;20024;-63
2022/04/08 00:50:03;;;;;;;6.95;2.95;;;;;;;5.27;100.00;98865.97;5046670;28;20131;-63
2022/04/08 00:52:30;;;;;;;7.93;3.78;;;;;;;5.21;100.00;98873.25;5046986;28;20965;-63
2022/04/08 00:54:56;;;;;;;10.05;3.25;;;;;;;5.09;100.00;98864.34;5029145;28;20157;-63
2022/04/08 00:57:21;;;;;;;6.93;3.15;;;;;;;5.07;100.00;98880.03;5048468;28;20872;-62
2022/04/08 00:59:46;;;;;;;8.00;2.83;;;;;;;4.98;100.00;98888.31;5048198;28;20921;-63
2022/04/08 01:02:12;;;;;;;14.30;3.60;;;;;;;4.92;100.00;98872.19;5046559;28;20020;-63
2022/04/08 01:04:38;;;;;;;5.30;3.30;;;;;;;4.97;100.00;98886.63;5046466;28;20806;-63
2022/04/08 01:07:03;;;;;;;10.90;3.42;;;;;;;5.03;100.00;98881.13;5047495;28;20028;-62
2022/04/08 01:09:29;;;;;;;5.55;3.38;;;;;;;5.05;100.00;98874.06;5045365;28;20131;-63
2022/04/08 01:11:55;;;;;;;8.68;3.75;;;;;;;4.90;100.00;98838.41;5047700;28;20024;-63
2022/04/08 01:14:21;;;;;;;6.63;3.60;;;;;;;5.07;100.00;98872.22;5046804;28;20126;-63
2022/04/08 01:16:46;;;;;;;7.43;2.90;;;;;;;5.09;100.00;98891.22;5046358;28;20081;-63
2022/04/08 01:19:12;;;;;;;10.38;3.78;;;;;;;4.97;100.00;98886.63;5047552;28;20032;-63
2022/04/08 01:21:37;;;;;;;8.05;3.03;;;;;;;4.93;100.00;98894.69;5046568;28;20028;-63
2022/04/08 01:24:03;;;;;;;9.63;2.90;;;;;;;4.98;100.00;98909.13;5046328;28;20880;-62
2022/04/08 01:26:28;;;;;;;6.68;3.15;;;;;;;4.97;100.00;98907.44;5046718;28;20055;-62
2022/04/08 01:28:55;;;;;;;8.27;3.33;;;;;;;5.10;100.00;98918.91;5046090;28;20039;-63
2022/04/08 01:31:23;;;;;;;6.70;2.78;;;;;;;5.05;100.00;98915.72;5045904;28;20024;-63
2022/04/08 01:33:49;;;;;;;4.80;2.25;;;;;;;5.18;100.00;98920.28;5020536;28;20086;-63
2022/04/08 01:36:14;;;;;;;5.35;2.85;;;;;;;5.27;100.00;98925.88;5047912;28;20040;-63
2022/04/08 01:38:40;;;;;;;13.20;3.50;;;;;;;5.28;100.00;98918.88;5048004;28;20809;-63
2022/04/08 01:41:05;;;;;;;10.23;3.28;;;;;;;5.27;100.00;98919.81;5052035;28;20024;-63
2022/04/08 01:43:31;;;;;;;11.80;3.25;;;;;;;5.26;100.00;98918.13;5050033;28;20956;-63
2022/04/08 01:45:56;;;;;;;8.00;3.00;;;;;;;5.19;100.00;98907.19;5066453;28;20039;-63
2022/04/08 01:48:21;;;;;;;8.32;3.45;;;;;;;5.41;100.00;98951.16;5066090;28;20935;-63
2022/04/08 01:50:47;;;;;;;5.90;2.45;;;;;;;5.30;100.00;98927.47;5067597;28;20898;-63
2022/04/08 01:53:15;;;;;;;6.97;3.05;;;;;;;5.31;100.00;98934.31;5048474;28;20138;-62
2022/04/08 01:55:41;;;;;;;6.53;3.55;;;;;;;5.28;100.00;98937.09;5047439;28;20031;-63
2022/04/08 01:58:06;;;;;;;7.28;3.13;;;;;;;5.32;100.00;98946.44;5046291;28;20055;-63
2022/04/08 02:00:32;;;;;;;6.25;3.33;;;;;;;5.31;100.00;98957.75;5047168;28;20887;-62
2022/04/08 02:02:57;;;;;;;7.93;3.58;;;;;;;5.27;100.00;98948.44;5048386;28;20052;-63
2022/04/08 02:05:22;;;;;;;15.07;4.40;;;;;;;5.08;100.00;98925.97;5046496;28;20028;-63
2022/04/08 02:07:48;;;;;;;11.60;3.85;;;;;;;4.90;100.00;98903.47;5051754;28;20024;-63
2022/04/08 02:10:13;;;;;;;7.00;3.30;;;;;;;5.14;100.00;98949.06;5046125;28;20028;-63
2022/04/08 02:12:39;;;;;;;7.70;3.95;;;;;;;5.11;100.00;98957.03;5043819;28;20039;-62
2022/04/08 02:15:05;;;;;;;6.03;3.75;;;;;;;5.10;100.00;98967.53;5074888;28;20039;-62
2022/04/08 02:17:31;;;;;;;8.38;3.75;;;;;;;5.04;100.00;98960.88;5056579;28;20759;-62
2022/04/08 02:19:57;;;;;;;6.43;3.35;;;;;;;4.79;100.00;98937.03;5046107;28;20273;-62
2022/04/08 02:22:26;;;;;;;7.95;3.75;;;;;;;5.02;100.00;98965.31;5044291;28;20513;-62
2022/04/08 02:24:52;;;;;;;6.40;3.85;;;;;;;4.91;100.00;98959.81;5046856;28;20032;-62
2022/04/08 02:27:18;;;;;;;6.82;3.80;;;;;;;4.90;100.00;98973.72;5047953;28;20079;-63
2022/04/08 02:29:44;;;;;;;7.07;3.88;;;;;;;4.82;100.00;98970.69;5037324;28;20085;-63
2022/04/08 02:32:10;;;;;;;8.65;4.63;;;;;;;4.79;100.00;98960.44;5068402;28;20036;-63
2022/04/08 02:34:39;;;;;;;11.50;4.20;;;;;;;4.83;100.00;98969.78;5069144;28;20038;-63
2022/04/08 02:37:06;;;;;;;6.40;3.70;;;;;;;4.65;100.00;98957.69;5068473;28;20845;-63
2022/04/08 02:39:31;;;;;;;8.48;3.95;;;;;;;4.48;100.00;98949.84;5068364;28;20027;-63
2022/04/08 02:41:57;;;;;;;8.15;4.20;;;;;;;4.51;100.00;98967.91;5068740;28;20024;-63
2022/04/08 02:44:22;;;;;;;9.88;3.90;;;;;;;4.48;100.00;98973.25;5055138;28;20926;-63
2022/04/08 02:46:48;;;;;;;11.23;4.60;;;;;;;4.36;100.00;98966.06;5049355;28;20030;-63
2022/04/08 02:49:13;;;;;;;7.55;3.70;;;;;;;4.38;100.00;98972.03;5047992;28;20832;-63
2022/04/08 02:51:38;;;;;;;6.20;3.28;;;;;;;4.36;100.00;98971.25;5047754;28;20127;-63
2022/04/08 02:54:04;;;;;;;6.82;3.67;;;;;;;4.32;100.00;98980.97;5048052;28;20028;-63
2022/04/08 02:56:29;;;;;;;6.30;3.42;;;;;;;4.29;100.00;98972.47;5049112;28;20816;-63
2022/04/08 02:58:57;;;;;;;15.20;3.92;;;;;;;4.22;100.00;98982.31;5048253;28;20039;-62
2022/04/08 03:01:22;;;;;;;8.63;3.80;;;;;;;4.18;100.00;98977.31;5047698;28;20028;-62
2022/04/08 03:03:48;;;;;;;9.82;3.97;;;;;;;4.11;100.00;98971.56;5050258;28;20028;-62
2022/04/08 03:06:13;;;;;;;6.95;3.47;;;;;;;4.11;100.00;98987.16;5049474;28;20024;-62
2022/04/08 03:08:38;;;;;;;4.75;3.00;;;;;;;4.01;100.00;98968.56;5048300;28;20024;-62
2022/04/08 03:11:04;;;;;;;9.18;3.33;;;;;;;4.00;100.00;98984.22;5047577;28;20877;-62
2022/04/08 03:13:29;;;;;;;10.23;3.72;;;;;;;3.91;100.00;98979.47;5047271;28;20028;-63
2022/04/08 03:15:55;;;;;;;6.40;4.00;;;;;;;3.75;100.00;98963.72;5049094;28;20266;-63
2022/04/08 03:18:20;;;;;;;6.35;3.10;;;;;;;3.88;100.00;98975.25;5047531;28;20077;-62
2022/04/08 03:20:45;;;;;;;4.80;3.17;;;;;;;3.85;100.00;98964.97;5047430;28;20028;-62
2022/04/08 03:23:11;;;;;;;7.45;3.08;;;;;;;3.71;100.00;98946.59;5049067;28;20036;-63
2022/04/08 03:25:36;;;;;;;9.32;3.50;;;;;;;3.64;100.00;98945.19;5047473;28;20028;-62
2022/04/08 03:28:02;;;;;;;9.75;4.47;;;;;;;3.84;100.00;98981.50;5048586;28;20931;-62
2022/04/08 03:30:27;;;;;;;8.90;3.95;;;;;;;3.83;100.00;98986.75;5047011;28;20028;-62
2022/04/08 03:32:55;;;;;;;5.80;3.10;;;;;;;3.81;100.00;98986.84;5046812;28;20033;-62
2022/04/08 03:35:21;;;;;;;9.00;3.72;;;;;;;3.79;100.00;98985.19;5046106;28;20770;-62
2022/04/08 03:37:46;;;;;;;8.82;3.67;;;;;;;3.89;100.00;99004.63;5047162;28;20031;-63
2022/04/08 03:40:12;;;;;;;10.07;4.35;;;;;;;3.89;100.00;99004.63;5047003;28;20894;-63
2022/04/08 03:42:38;;;;;;;8.13;4.03;;;;;;;3.54;100.00;98943.94;5047374;28;20020;-64
2022/04/08 03:45:04;;;;;;;7.13;3.58;;;;;;;3.93;100.00;99004.44;5047057;28;20024;-63
2022/04/08 03:47:30;;;;;;;7.90;3.20;;;;;;;3.42;100.00;98929.72;5046922;28;20020;-63
2022/04/08 03:49:56;;;;;;;6.28;3.38;;;;;;;3.71;100.00;98980.38;5048217;28;20028;-63
2022/04/08 03:52:21;;;;;;;8.60;3.90;;;;;;;3.84;100.00;99004.88;5046468;28;21010;-63
2022/04/08 03:54:46;;;;;;;7.60;3.35;;;;;;;3.75;100.00;98996.66;5029364;28;20032;-63
2022/04/08 03:57:12;;;;;;;7.63;3.63;;;;;;;3.69;100.00;99000.34;5046743;28;20114;-62
2022/04/08 03:59:37;;;;;;;7.03;3.60;;;;;;;3.71;100.00;99016.72;5048515;28;20063;-62
2022/04/08 04:02:05;;;;;;;6.55;3.47;;;;;;;3.64;100.00;99007.53;5048284;28;20943;-62
2022/04/08 04:04:31;;;;;;;8.55;3.65;;;;;;;3.68;100.00;99018.63;5047220;28;20130;-62
2022/04/08 04:06:57;;;;;;;6.93;3.10;;;;;;;3.51;100.00;99004.63;5046681;28;20114;-62
2022/04/08 04:09:22;;;;;;;5.80;2.83;;;;;;;3.59;100.00;99018.09;5046522;28;20893;-62
2022/04/08 04:11:47;;;;;;;6.10;3.47;;;;;;;3.51;100.00;99003.78;5046646;28;20024;-62
2022/04/08 04:14:13;;;;;;;14.27;3.53;;;;;;;3.60;100.00;99016.34;5047794;28;20020;-62
2022/04/08 04:16:38;;;;;;;7.78;3.30;;;;;;;3.50;100.00;99004.69;5046366;28;20880;-61
2022/04/08 04:19:04;;;;;;;6.55;3.88;;;;;;;3.44;100.00;98991.97;5046002;28;20385;-62
2022/04/08 04:21:29;;;;;;;5.65;3.08;;;;;;;3.47;100.00;98991.84;5048580;28;20036;-62
2022/04/08 04:23:54;;;;;;;7.22;3.22;;;;;;;3.37;100.00;98969.78;5045967;28;20020;-62
2022/04/08 04:26:20;;;;;;;5.90;3.42;;;;;;;3.42;100.00;98986.00;5045868;28;20909;-63
2022/04/08 04:28:45;;;;;;;6.75;2.90;;;;;;;3.38;100.00;98987.06;5046307;28;20031;-62
2022/04/08 04:31:10;;;;;;;8.40;3.35;;;;;;;3.35;100.00;98981.97;5046480;28;20039;-63
2022/04/08 04:33:36;;;;;;;7.40;3.97;;;;;;;3.25;100.00;98970.31;5046161;28;20032;-62
2022/04/08 04:36:01;;;;;;;8.85;3.80;;;;;;;3.24;100.00;98971.25;5028686;28;20081;-62
2022/04/08 04:38:27;;;;;;;5.18;3.30;;;;;;;3.14;100.00;98962.19;5048836;28;20020;-62
2022/04/08 04:40:52;;;;;;;7.60;3.33;;;;;;;3.23;100.00;98979.94;5029300;28;20032;-63
2022/04/08 04:43:18;;;;;;;5.55;3.45;;;;;;;3.26;100.00;98988.44;5047335;28;20028;-62
2022/04/08 04:45:43;;;;;;;8.35;4.32;;;;;;;3.22;100.00;98983.44;5047059;28;20779;-63
2022/04/08 04:48:13;;;;;;;5.05;3.22;;;;;;;3.21;100.00;98974.78;5047079;28;20036;-62
2022/04/08 04:50:39;;;;;;;8.80;4.57;;;;;;;3.01;100.00;98956.66;5048388;28;20028;-63
2022/04/08 04:53:04;;;;;;;7.47;3.70;;;;;;;2.85;100.00;98920.16;5047021;28;20031;-63
2022/04/08 04:55:30;;;;;;;8.15;3.70;;;;;;;3.32;100.00;98995.09;5046416;28;20032;-63
2022/04/08 04:57:56;;;;;;;6.82;3.33;;;;;;;3.24;100.00;98976.44;5045456;28;20063;-63
2022/04/08 05:00:22;;;;;;;9.65;4.65;;;;;;;3.30;100.00;98976.16;5046007;28;20039;-63
2022/04/08 05:02:47;;;;;;;5.65;3.22;;;;;;;3.33;100.00;98989.00;5045873;28;20089;-63
2022/04/08 05:05:12;;;;;;;6.88;3.67;;;;;;;3.37;100.00;98998.34;5050316;28;20024;-62
2022/04/08 05:07:38;;;;;;;5.13;3.50;;;;;;;3.33;100.00;98996.78;5045701;28;20714;-63
2022/04/08 05:10:04;;;;;;;6.03;3.42;;;;;;;3.40;100.00;98998.22;5045500;28;20032;-63
2022/04/08 05:12:30;;;;;;;5.80;3.42;;;;;;;3.30;100.00;98984.78;5028695;28;20921;-63
2022/04/08 05:14:56;;;;;;;7.38;3.38;;;;;;;3.26;100.00;98977.19;5048747;28;20039;-62
2022/04/08 05:17:21;;;;;;;5.75;3.80;;;;;;;3.27;100.00;98978.91;5048435;28;20024;-63
2022/04/08 05:19:46;;;;;;;11.18;4.15;;;;;;;3.42;100.00;98996.38;5048166;28;20845;-63
2022/04/08 05:22:12;;;;;;;11.00;3.78;;;;;;;3.48;100.00;98989.16;5048059;28;20031;-62
2022/04/08 05:24:37;;;;;;;10.88;4.40;;;;;;;3.53;100.00;98989.81;5047616;28;20067;-62
2022/04/08 05:27:03;;;;;;;10.43;3.72;;;;;;;3.58;100.00;98989.63;5048316;28;20106;-62
2022/04/08 05:29:29;;;;;;;6.43;3.33;;;;;;;3.55;100.00;98987.97;5047265;28;20945;-62
2022/04/08 05:31:54;;;;;;;7.75;4.30;;;;;;;3.58;100.00;98994.81;5047985;28;20028;-62
2022/04/08 05:34:19;;;;;;;10.48;3.95;;;;;;;3.65;100.00;98993.59;5070964;28;20032;-61
2022/04/08 05:36:45;;;;;;;6.78;3.50;;;;;;;3.65;100.00;98985.81;5091661;28;20456;-62
2022/04/08 05:39:10;;;;;;;16.33;4.30;;;;;;;3.68;100.00;98988.31;5087166;28;20021;-60
2022/04/08 05:41:35;;;;;;;5.53;3.75;;;;;;;3.73;100.00;98985.47;5082804;28;20028;-62
2022/04/08 05:44:01;;;;;;;6.13;3.95;;;;;;;3.77;100.00;98977.50;5047130;28;20174;-63
2022/04/08 05:46:26;;;;;;;7.32;4.32;;;;;;;3.81;100.00;98983.38;5081030;28;20031;-61
2022/04/08 05:48:51;;;;;;;9.40;5.53;;;;;;;3.89;100.00;98991.66;5074120;28;20059;-62
2022/04/08 05:51:17;;;;;;;18.65;10.85;;;;;;;3.92;100.00;98984.56;5091779;28;20024;-61
2022/04/08 05:53:42;;;;;;;12.85;7.68;;;;;;;3.80;100.00;98956.56;5091761;28;20539;-61
2022/04/08 05:56:08;;;;;;;9.82;5.80;;;;;;;3.75;100.00;98932.53;5092248;28;20071;-61
2022/04/08 05:58:33;;;;;;;11.48;5.15;;;;;;;4.02;100.00;98979.81;5072956;28;20559;-61
2022/04/08 06:00:59;;;;;;;9.13;5.57;;;;;;;4.11;100.00;98982.81;5067950;28;20518;-62
2022/04/08 06:03:25;;;;;;;8.00;4.68;;;;;;;4.17;100.00;98970.44;5081101;28;20035;-62
2022/04/08 06:05:50;;;;;;;10.90;6.22;;;;;;;4.25;100.00;98966.56;5042172;28;20020;-62
2022/04/08 06:08:15;;;;;;;8.25;4.78;;;;;;;4.27;100.00;98951.72;5065020;28;20028;-62
2022/04/08 06:10:41;;;;;;;10.82;5.20;;;;;;;4.42;100.00;98960.56;5066068;28;20938;-62
2022/04/08 06:13:06;;;;;;;9.93;4.28;;;;;;;4.49;100.00;98968.00;5065942;28;20024;-62
2022/04/08 06:15:32;;;;;;;6.88;4.47;;;;;;;4.39;100.00;98934.72;5065130;28;20894;-62
2022/04/08 06:17:58;;;;;;;7.10;4.28;;;;;;;4.65;100.00;98975.88;5065340;28;20059;-62
2022/04/08 06:20:24;;;;;;;22.17;5.72;;;;;;;4.71;100.00;98970.38;5065647;28;20030;-62
2022/04/08 06:22:50;;;;;;;11.50;4.30;;;;;;;4.78;100.00;98958.75;5064310;28;20027;-62
2022/04/08 06:25:20;;;;;;;9.23;4.57;;;;;;;4.84;100.00;98966.25;5059015;28;20034;-62
2022/04/08 06:27:55;;;;;;;6.97;4.10;;;;;;;4.91;100.00;98970.22;5054103;28;20095;-62
2022/04/08 06:30:21;;;;;;;10.57;4.43;;;;;;;4.98;100.00;98960.34;5045464;28;20028;-62
2022/04/08 06:32:46;;;;;;;6.78;4.22;;;;;;;4.92;100.00;98943.28;5045143;28;20916;-63
2022/04/08 06:35:12;;;;;;;9.73;4.50;;;;;;;5.21;100.00;98967.81;5045545;28;20070;-63
2022/04/08 06:37:38;;;;;;;8.80;5.00;;;;;;;5.33;100.00;98966.34;5047303;28;20083;-62
2022/04/08 06:40:05;;;;;;;12.35;5.60;;;;;;;5.45;100.00;98966.56;5047862;28;20241;-62
2022/04/08 06:42:30;;;;;;;11.07;5.28;;;;;;;5.43;100.00;98936.31;5045155;28;20066;-62
2022/04/08 06:44:55;;;;;;;9.25;4.80;;;;;;;5.61;100.00;98957.00;5044717;28;20936;-61
2022/04/08 06:47:21;;;;;;;6.85;4.53;;;;;;;5.62;100.00;98952.63;5045450;28;20267;-62
2022/04/08 06:49:46;;;;;;;8.88;4.55;;;;;;;5.67;100.00;98953.25;5045664;28;20845;-62
2022/04/08 06:52:12;;;;;;;10.32;5.13;;;;;;;5.67;100.00;98955.84;5080928;28;20024;-62
2022/04/08 06:54:38;;;;;;;22.52;6.63;;;;;;;5.69;100.00;98959.19;5091032;28;20085;-62
2022/04/08 06:57:03;;;;;;;43.15;13.20;;;;;;;5.61;100.00;98945.75;5089361;28;20028;-62
2022/04/08 06:59:29;;;;;;;18.17;5.68;;;;;;;5.68;100.00;98947.09;5091605;28;20028;-62
2022/04/08 07:01:54;;;;;;;10.38;5.30;;;;;;;5.70;100.00;98949.63;5091103;28;20039;-62
2022/04/08 07:04:19;;;;;;;9.20;4.50;;;;;;;5.75;100.00;98948.44;5091248;28;20047;-63
2022/04/08 07:06:45;;;;;;;9.38;5.47;;;;;;;5.84;100.00;98950.56;5072136;28;20818;-62
2022/04/08 07:09:10;;;;;;;5.45;3.65;;;;;;;5.87;100.00;98946.97;5044164;28;20428;-62
2022/04/08 07:11:35;;;;;;;9.95;4.60;;;;;;;5.86;100.00;98946.13;5030206;28;20143;-62
2022/04/08 07:14:01;;;;;;;8.93;4.47;;;;;;;5.90;100.00;98946.81;5047915;28;20032;-62
2022/04/08 07:16:27;;;;;;;9.45;4.68;;;;;;;5.87;100.00;98940.00;5048399;28;20090;-62
2022/04/08 07:18:53;;;;;;;13.35;4.35;;;;;;;5.97;100.00;98951.63;5048248;28;20028;-62
2022/04/08 07:21:18;;;;;;;10.10;4.50;;;;;;;5.95;100.00;98943.03;5048351;28;20039;-62
2022/04/08 07:23:44;;;;;;;7.43;4.78;;;;;;;6.06;100.00;98947.66;5046779;28;20232;-61
2022/04/08 07:26:09;;;;;;;11.27;5.53;;;;;;;5.87;100.00;98919.16;5047340;28;20027;-62
2022/04/08 07:28:35;;;;;;;7.88;4.78;;;;;;;6.13;100.00;98949.00;5049284;28;20387;-62
2022/04/08 07:31:00;;;;;;;10.27;5.38;;;;;;;6.11;100.00;98951.72;5048595;28;20112;-62
2022/04/08 07:33:26;;;;;;;9.45;4.85;;;;;;;6.12;100.00;98955.97;5048063;28;20549;-62
2022/04/08 07:35:51;;;;;;;11.07;5.13;;;;;;;6.18;100.00;98956.56;5048958;28;20039;-62
2022/04/08 07:38:16;;;;;;;10.30;5.30;;;;;;;6.13;100.00;98941.16;5048148;28;20028;-62
2022/04/08 07:40:42;;;;;;;7.70;4.38;;;;;;;6.22;100.00;98968.53;5047402;28;20952;-62
2022/04/08 07:43:07;;;;;;;9.77;4.63;;;;;;;6.27;100.00;98956.06;5047838;28;20032;-62
2022/04/08 07:45:33;;;;;;;9.02;4.43;;;;;;;6.32;100.00;98951.44;5047549;28;20027;-62
2022/04/08 07:47:59;;;;;;;16.20;6.35;;;;;;;6.22;100.00;98913.75;5049424;28;20034;-62
2022/04/08 07:50:26;;;;;;;11.02;3.83;;;;;;;6.38;100.00;98927.59;5048943;28;20020;-62
2022/04/08 07:52:52;;;;;;;9.95;4.32;;;;;;;6.51;100.00;98945.09;5030606;28;20030;-62
2022/04/08 07:55:20;;;;;;;9.48;4.30;;;;;;;5.79;100.00;98814.44;5047170;28;20027;-62
2022/04/08 07:57:49;;;;;;;11.80;3.72;;;;;;;6.56;100.00;98927.38;5047656;28;20237;-62
2022/04/08 08:00:19;;;;;;;8.55;4.07;;;;;;;6.56;100.00;98911.72;5047020;28;20068;-62
2022/04/08 08:02:45;;;;;;;8.68;3.72;;;;;;;6.55;100.00;98904.00;5047837;28;20938;-62
2022/04/08 08:05:11;;;;;;;6.78;3.65;;;;;;;6.67;100.00;98918.94;5047035;28;20139;-62
2022/04/08 08:07:48;;;;;;;14.57;5.50;;;;;;;6.67;100.00;98919.78;5047883;28;20027;-62
2022/04/08 08:10:15;;;;;;;5.70;3.67;;;;;;;6.45;100.00;98889.81;5047886;28;20042;-63
2022/04/08 08:12:40;;;;;;;15.68;4.13;;;;;;;6.64;100.00;98913.91;5046999;28;20052;-62
2022/04/08 08:15:06;;;;;;;5.15;3.10;;;;;;;6.76;100.00;98918.38;5046758;28;20089;-62
2022/04/08 08:17:31;;;;;;;8.90;3.78;;;;;;;6.72;100.00;98896.03;5047229;28;20028;-62
2022/04/08 08:19:57;;;;;;;9.45;3.63;;;;;;;6.55;100.00;98857.88;5046291;28;20031;-62
2022/04/08 08:22:23;;;;;;;7.43;3.90;;;;;;;6.89;100.00;98919.38;5046105;28;20043;-62
2022/04/08 08:24:48;;;;;;;7.38;3.47;;;;;;;6.87;100.00;98913.38;5047599;28;20032;-62
2022/04/08 08:27:13;;;;;;;6.72;3.50;;;;;;;6.78;100.00;98898.28;5047146;28;20032;-62
2022/04/08 08:29:39;;;;;;;5.90;2.97;;;;;;;6.82;100.00;98905.00;5047049;28;20034;-62
2022/04/08 08:32:04;;;;;;;7.28;3.63;;;;;;;6.87;100.00;98905.56;5047125;28;20027;-63
2022/04/08 08:34:30;;;;;;;5.93;2.92;;;;;;;6.79;100.00;98894.75;5047692;28;20565;-62
2022/04/08 08:36:59;;;;;;;7.63;2.97;;;;;;;6.86;100.00;98897.84;5048003;28;20089;-62
2022/04/08 08:39:26;;;;;;;5.60;3.03;;;;;;;6.94;100.00;98899.03;5046949;28;20077;-62
2022/04/08 08:41:51;;;;;;;13.15;4.35;;;;;;;7.01;100.00;98892.53;5047626;28;20037;-63
2022/04/08 08:44:19;;;;;;;39.13;8.02;;;;;;;7.06;100.00;98887.03;5047630;28;20914;-62
2022/04/08 08:46:44;;;;;;;11.80;3.72;;;;;;;6.65;100.00;98813.81;5028332;28;20930;-61
2022/04/08 08:49:11;;;;;;;7.45;3.33;;;;;;;7.08;100.00;98872.94;5046082;28;20059;-62
2022/04/08 08:51:38;;;;;;;5.43;3.47;;;;;;;7.16;100.00;98872.50;5045818;28;20030;-61
2022/04/08 08:54:04;;;;;;;11.50;3.30;;;;;;;7.25;100.00;98858.88;5027788;28;20047;-62
2022/04/08 08:56:29;;;;;;;7.38;3.50;;;;;;;7.27;100.00;98871.81;5046276;28;20052;-62
2022/04/08 08:58:55;;;;;;;6.07;3.42;;;;;;;7.33;100.00;98861.00;5028120;28;20032;-62
2022/04/08 09:01:20;;;;;;;4.75;2.83;;;;;;;7.34;100.00;98857.44;5047525;28;20039;-62
2022/04/08 09:03:45;;;;;;;5.18;2.92;;;;;;;7.43;100.00;98862.13;5045674;28;20035;-62
2022/04/08 09:06:11;;;;;;;5.00;2.50;;;;;;;7.39;100.00;98853.63;5045930;28;20028;-63
2022/04/08 09:08:38;;;;;;;5.82;2.92;;;;;;;7.44;100.00;98858.56;5045455;28;20035;-62
2022/04/08 09:11:04;;;;;;;4.82;2.28;;;;;;;7.37;100.00;98818.91;5045749;28;20024;-62
2022/04/08 09:13:30;;;;;;;7.70;2.45;;;;;;;7.53;100.00;98831.88;5028436;28;20032;-62
2022/04/08 09:16:01;;;;;;;7.50;2.00;;;;;;;7.63;100.00;98841.66;5044871;28;20120;-62
2022/04/08 09:18:30;;;;;;;5.68;2.60;;;;;;;7.64;100.00;98837.22;5044103;28;20032;-62
2022/04/08 09:20:59;;;;;;;6.00;3.15;;;;;;;7.79;100.00;98838.03;5046306;28;20024;-62
2022/04/08 09:23:25;;;;;;;8.85;2.45;;;;;;;7.63;100.00;98827.75;5046459;28;20240;-62
2022/04/08 09:26:04;;;;;;;8.45;2.72;;;;;;;7.48;100.00;98803.41;5027226;28;20568;-62
2022/04/08 09:28:35;;;;;;;10.52;2.40;;;;;;;7.78;100.00;98839.81;5044732;28;20405;-62
2022/04/08 09:31:02;;;;;;;6.85;1.95;;;;;;;7.79;100.00;98838.88;5044593;28;20028;-62
2022/04/08 09:33:29;;;;;;;21.38;3.50;;;;;;;7.83;100.00;98847.38;5045225;28;20089;-62
2022/04/08 09:35:56;;;;;;;5.38;2.30;;;;;;;7.72;100.00;98843.66;5026965;28;20093;-62
2022/04/08 09:38:26;;;;;;;6.15;2.42;;;;;;;7.66;100.00;98849.28;5046006;28;20109;-62
2022/04/08 09:41:03;;;;;;;6.53;2.45;;;;;;;7.60;100.00;98848.84;5043978;28;20047;-62
2022/04/08 09:43:34;;;;;;;3.97;2.03;;;;;;;7.52;100.00;98832.78;5042866;28;20026;-62
2022/04/08 09:46:19;;;;;;;5.80;1.90;;;;;;;7.58;100.00;98861.16;5041691;28;20031;-62
2022/04/08 09:48:46;;;;;;;4.22;1.70;;;;;;;7.54;100.00;98860.50;5043586;28;20028;-62
2022/04/08 09:51:20;;;;;;;5.03;2.08;;;;;;;7.49;100.00;98843.44;5045642;28;20127;-62
2022/04/08 09:53:48;;;;;;;8.35;1.92;;;;;;;7.63;100.00;98872.16;5045489;28;20032;-62
2022/04/08 09:56:15;;;;;;;6.00;2.33;;;;;;;7.56;100.00;98879.56;5044200;28;20024;-62
2022/04/08 09:58:43;;;;;;;8.10;1.88;;;;;;;7.53;100.00;98864.06;5045442;28;20028;-63
2022/04/08 10:01:09;;;;;;;6.43;2.10;;;;;;;7.42;100.00;98848.22;5045411;28;20024;-62
2022/04/08 10:03:35;;;;;;;5.85;2.17;;;;;;;7.55;100.00;98869.19;5045714;28;20052;-62
2022/04/08 10:06:00;;;;;;;4.70;2.08;;;;;;;7.44;100.00;98853.31;5030106;28;20860;-62
2022/04/08 10:08:26;;;;;;;4.80;2.22;;;;;;;7.55;100.00;98869.19;5044473;28;20121;-62
2022/04/08 10:10:59;;;;;;;4.90;1.92;;;;;;;7.39;100.00;98830.13;5041089;28;20796;-62
2022/04/08 10:13:47;;;;;;;4.75;1.70;;;;;;;7.64;100.00;98855.53;5025922;28;20093;-62
2022/04/08 10:16:17;;;;;;;7.75;3.20;;;;;;;7.56;100.00;98852.59;5044705;28;20039;-62
2022/04/08 10:18:44;;;;;;;9.27;3.28;;;;;;;7.59;100.00;98848.00;5047276;28;20975;-63
2022/04/08 10:21:10;;;;;;;5.35;2.13;;;;;;;7.57;100.00;98839.41;5044724;28;20051;-61
2022/04/08 10:23:38;;;;;;;4.55;1.98;;;;;;;7.35;100.00;98801.66;5045513;28;20028;-63
2022/04/08 10:26:05;;;;;;;8.57;1.95;;;;;;;7.56;100.00;98832.50;5029178;28;20436;-62
2022/04/08 10:28:37;;;;;;;12.52;2.78;;;;;;;7.44;100.00;98804.53;5042815;28;20028;-63
2022/04/08 10:31:22;;;;;;;11.60;3.20;;;;;;;7.67;100.00;98839.69;5027322;28;20031;-64
2022/04/08 10:33:58;;;;;;;6.60;2.63;;;;;;;7.64;100.00;98824.16;5043216;28;20032;-63
2022/04/08 10:36:43;;;;;;;4.47;2.45;;;;;;;7.65;100.00;98820.63;5043311;28;20024;-62
2022/04/08 10:39:16;;;;;;;3.22;1.50;;;;;;;7.47;100.00;98800.91;5042930;28;20032;-63
2022/04/08 10:41:49;;;;;;;;;;;;;;;7.63;100.00;98814.66;5044289;28;20122;-62
2022/04/08 10:44:15;;;;;;;5.85;1.63;;;;;;;7.62;100.00;98799.91;5044584;28;19920;-62
2022/04/08 10:46:51;;;;;;;9.10;1.92;;;;;;;7.69;100.00;98798.59;5031746;28;20024;-61
2022/04/08 10:49:17;;;;;;;4.53;1.67;;;;;;;7.69;100.00;98773.28;5047766;28;20024;-62
2022/04/08 10:51:47;;;;;;;5.25;1.95;;;;;;;7.82;100.00;98785.56;5049187;28;20036;-61
2022/04/08 10:54:12;;;;;;;2.83;1.60;;;;;;;7.82;100.00;98775.09;5048266;28;20077;-63
2022/04/08 10:56:38;;;;;;;3.75;1.80;;;;;;;8.05;100.00;98767.41;5031402;28;20087;-62
2022/04/08 10:59:04;;;;;;;4.57;2.22;;;;;;;8.15;100.00;98767.66;5049097;28;20772;-64
2022/04/08 11:01:34;;;;;;;8.82;3.00;;;;;;;8.19;100.00;98759.50;5048749;28;20135;-61
2022/04/08 11:04:04;;;;;;;3.90;2.08;;;;;;;8.22;100.00;98779.38;5048594;28;20073;-61
2022/04/08 11:06:31;;;;;;;10.18;2.60;;;;;;;8.25;100.00;98770.50;5048362;28;20991;-61
2022/04/08 11:09:04;;;;;;;7.93;2.60;;;;;;;8.22;100.00;98767.16;5030782;28;20035;-61
2022/04/08 11:11:30;;;;;;;4.07;1.85;;;;;;;8.17;100.00;98764.00;5050569;28;20035;-61
2022/04/08 11:14:00;;;;;;;8.55;2.15;;;;;;;7.94;99.80;98733.28;5048105;28;20141;-61
2022/04/08 11:16:31;;;;;;;4.93;1.88;;;;;;;8.15;100.00;98754.56;5048034;28;20059;-61
2022/04/08 11:18:56;;;;;;;3.90;1.50;;;;;;;8.01;100.00;98734.56;5048054;28;20024;-61
2022/04/08 11:21:24;;;;;;;3.10;1.50;;;;;;;8.13;100.00;98754.69;5047280;28;20059;-61
2022/04/08 11:24:04;;;;;;;3.55;1.65;;;;;;;8.07;95.96;98749.88;5047620;28;20027;-61
2022/04/08 11:26:31;;;;;;;13.13;2.15;;;;;;;8.08;95.92;98756.75;5030596;28;20040;-61
2022/04/08 11:29:11;;;;;;;3.85;1.65;;;;;;;8.00;97.34;98732.91;5049954;28;20031;-61